createdAt,value
2023-03-05T00:01:16.377Z,36.81
2023-03-05T00:03:43.054Z,37.25
2023-03-05T00:06:10.199Z,36.91
2023-03-05T00:08:37.388Z,36.80
2023-03-05T00:11:06.743Z,37.18
2023-03-05T00:13:34.323Z,37.12
2023-03-05T00:16:04.371Z,36.98
2023-03-05T00:18:30.891Z,37.28
2023-03-05T00:20:57.569Z,37.14
2023-03-05T00:23:24.013Z,36.93
2023-03-05T00:25:50.530Z,36.77
2023-03-05T00:28:17.156Z,36.91
2023-03-05T00:30:43.705Z,37.30
2023-03-05T00:33:12.958Z,36.85
2023-03-05T00:35:44.936Z,36.59
2023-03-05T00:38:12.688Z,36.63
2023-03-05T00:40:41.180Z,37.02
2023-03-05T00:43:09.099Z,36.79
2023-03-05T00:45:35.753Z,36.92
2023-03-05T00:48:03.365Z,36.59
2023-03-05T00:50:29.842Z,36.70
2023-03-05T00:52:56.328Z,36.75
2023-03-05T00:55:22.908Z,36.35
2023-03-05T00:57:49.405Z,36.83
2023-03-05T01:00:17.264Z,36.30
2023-03-05T01:02:43.742Z,36.73
2023-03-05T01:05:15.257Z,36.32
2023-03-05T01:07:41.912Z,36.64
2023-03-05T01:10:09.629Z,36.31
2023-03-05T01:12:37.341Z,36.45
2023-03-05T01:15:05.806Z,36.62
2023-03-05T01:17:32.492Z,36.53
2023-03-05T01:19:58.979Z,36.29
2023-03-05T01:22:25.447Z,36.45
2023-03-05T01:24:51.995Z,36.68
2023-03-05T01:27:18.606Z,36.29
2023-03-05T01:29:45.060Z,36.44
2023-03-05T01:32:11.702Z,36.44
2023-03-05T01:34:38.251Z,36.38
2023-03-05T01:37:05.251Z,36.08
2023-03-05T01:39:31.707Z,36.36
2023-03-05T01:41:58.190Z,36.02
2023-03-05T01:44:30.334Z,36.13
2023-03-05T01:46:57.006Z,35.99
2023-03-05T01:49:38.577Z,36.22
2023-03-05T01:52:17.615Z,36.28
2023-03-05T01:54:50.868Z,36.31
2023-03-05T01:57:24.803Z,36.14
2023-03-05T01:59:56.342Z,35.86
2023-03-05T02:02:22.900Z,36.23
2023-03-05T02:05:03.141Z,36.23
2023-03-05T02:07:31.592Z,36.22
2023-03-05T02:09:58.105Z,35.91
2023-03-05T02:12:24.694Z,36.33
2023-03-05T02:14:59.643Z,36.46
2023-03-05T02:17:27.528Z,36.30
2023-03-05T02:19:56.723Z,36.14
2023-03-05T02:22:24.715Z,36.04
2023-03-05T02:24:51.984Z,35.95
2023-03-05T02:27:22.669Z,35.70
2023-03-05T02:29:50.178Z,36.08
2023-03-05T02:32:16.788Z,35.78
2023-03-05T02:34:43.410Z,35.95
2023-03-05T02:37:10.631Z,35.68
2023-03-05T02:39:38.228Z,36.00
2023-03-05T02:42:04.760Z,35.92
2023-03-05T02:44:31.538Z,36.14
2023-03-05T02:46:58.092Z,35.94
2023-03-05T02:49:25.144Z,35.82
2023-03-05T02:51:51.685Z,35.56
2023-03-05T02:54:18.291Z,36.13
2023-03-05T02:56:44.799Z,35.89
2023-03-05T02:59:11.407Z,35.68
2023-03-05T03:01:38.237Z,36.23
2023-03-05T03:04:04.997Z,36.18
2023-03-05T03:06:31.507Z,36.25
2023-03-05T03:08:58.024Z,35.97
2023-03-05T03:11:24.619Z,36.40
2023-03-05T03:13:51.080Z,35.89
2023-03-05T03:16:17.847Z,35.79
2023-03-05T03:18:47.360Z,35.64
2023-03-05T03:21:23.110Z,35.70
2023-03-05T03:23:49.714Z,35.96
2023-03-05T03:26:17.245Z,35.82
2023-03-05T03:28:43.734Z,35.67
2023-03-05T03:31:10.368Z,35.93
2023-03-05T03:33:36.910Z,35.21
2023-03-05T03:36:04.639Z,35.65
2023-03-05T03:38:31.686Z,35.50
2023-03-05T03:40:58.220Z,35.79
2023-03-05T03:43:24.778Z,35.87
2023-03-05T03:45:51.468Z,35.70
2023-03-05T03:48:18.104Z,35.46
2023-03-05T03:50:44.968Z,35.62
2023-03-05T03:53:14.325Z,35.74
2023-03-05T03:55:46.523Z,35.84
2023-03-05T03:58:13.513Z,35.92
2023-03-05T04:00:41.635Z,35.79
2023-03-05T04:03:08.654Z,36.30
2023-03-05T04:05:35.197Z,35.98
2023-03-05T04:08:01.650Z,35.74
2023-03-05T04:10:28.111Z,35.43
2023-03-05T04:12:54.636Z,35.37
2023-03-05T04:15:21.248Z,35.59
2023-03-05T04:17:47.707Z,36.27
2023-03-05T04:20:14.160Z,35.89
2023-03-05T04:22:40.703Z,35.50
2023-03-05T04:25:08.402Z,35.75
2023-03-05T04:27:36.008Z,35.44
2023-03-05T04:30:02.463Z,35.54
2023-03-05T04:32:29.893Z,35.33
2023-03-05T04:34:57.277Z,35.17
2023-03-05T04:37:25.417Z,35.21
2023-03-05T04:39:52.961Z,35.37
2023-03-05T04:42:21.016Z,35.44
2023-03-05T04:44:49.163Z,35.57
2023-03-05T04:47:16.450Z,35.56
2023-03-05T04:49:43.292Z,35.69
2023-03-05T04:52:12.020Z,35.50
2023-03-05T04:54:38.801Z,35.63
2023-03-05T04:57:06.046Z,36.04
2023-03-05T04:59:32.610Z,35.46
2023-03-05T05:01:59.260Z,35.84
2023-03-05T05:04:25.733Z,35.60
2023-03-05T05:06:56.072Z,35.64
2023-03-05T05:09:23.030Z,35.76
2023-03-05T05:11:49.632Z,35.36
2023-03-05T05:14:16.471Z,35.46
2023-03-05T05:16:42.925Z,35.72
2023-03-05T05:19:09.615Z,35.47
2023-03-05T05:21:36.113Z,35.39
2023-03-05T05:24:02.619Z,35.07
2023-03-05T05:26:29.105Z,35.71
2023-03-05T05:28:55.604Z,35.60
2023-03-05T05:31:22.132Z,35.45
2023-03-05T05:33:49.934Z,35.73
2023-03-05T05:36:19.140Z,35.64
2023-03-05T05:38:45.939Z,35.66
2023-03-05T05:41:15.228Z,35.31
2023-03-05T05:43:42.238Z,35.32
2023-03-05T05:46:12.370Z,35.27
2023-03-05T05:48:39.155Z,35.12
2023-03-05T05:51:07.990Z,35.29
2023-03-05T05:53:34.708Z,35.67
2023-03-05T05:56:03.449Z,35.51
2023-03-05T05:58:30.011Z,35.30
2023-03-05T06:00:56.568Z,35.35
2023-03-05T06:03:23.090Z,35.60
2023-03-05T06:05:49.622Z,35.58
2023-03-05T06:08:16.167Z,35.57
2023-03-05T06:10:42.742Z,35.29
2023-03-05T06:13:09.254Z,35.44
2023-03-05T06:15:35.765Z,35.30
2023-03-05T06:18:02.880Z,35.09
2023-03-05T06:20:29.393Z,34.79
2023-03-05T06:22:55.973Z,35.18
2023-03-05T06:25:22.550Z,34.72
2023-03-05T06:27:49.100Z,35.01
2023-03-05T06:30:15.744Z,35.17
2023-03-05T06:32:42.205Z,34.89
2023-03-05T06:35:09.106Z,34.58
2023-03-05T06:37:35.632Z,34.94
2023-03-05T06:40:02.098Z,35.09
2023-03-05T06:42:28.571Z,35.14
2023-03-05T06:44:55.029Z,35.36
2023-03-05T06:47:21.513Z,35.15
2023-03-05T06:49:47.985Z,34.99
2023-03-05T06:52:14.565Z,35.14
2023-03-05T06:54:41.017Z,35.02
2023-03-05T06:57:07.483Z,35.32
2023-03-05T06:59:33.971Z,35.65
2023-03-05T07:02:00.557Z,35.56
2023-03-05T07:04:27.173Z,35.67
2023-03-05T07:06:53.701Z,35.21
2023-03-05T07:09:20.207Z,35.46
2023-03-05T07:11:46.663Z,35.54
2023-03-05T07:14:13.187Z,35.41
2023-03-05T07:16:39.665Z,35.97
2023-03-05T07:19:07.835Z,35.41
2023-03-05T07:21:36.905Z,36.04
2023-03-05T07:24:05.706Z,36.48
2023-03-05T07:26:33.603Z,36.24
2023-03-05T07:29:01.399Z,35.79
2023-03-05T07:31:31.054Z,35.84
2023-03-05T07:33:59.234Z,35.54
2023-03-05T07:36:26.885Z,35.52
2023-03-05T07:38:53.704Z,35.40
2023-03-05T07:41:23.582Z,34.65
2023-03-05T07:43:53.158Z,35.37
2023-03-05T07:46:22.705Z,35.67
2023-03-05T07:48:49.657Z,35.64
2023-03-05T07:51:19.933Z,35.76
2023-03-05T07:53:48.555Z,35.30
2023-03-05T07:56:21.935Z,35.20
2023-03-05T07:58:48.400Z,35.44
2023-03-05T08:01:14.959Z,35.22
2023-03-05T08:03:43.220Z,35.66
2023-03-05T08:06:11.771Z,35.24
2023-03-05T08:08:39.019Z,35.84
2023-03-05T08:11:07.353Z,35.63
2023-03-05T08:13:33.838Z,35.70
2023-03-05T08:16:04.963Z,35.42
2023-03-05T08:18:31.462Z,35.55
2023-03-05T08:20:58.076Z,35.52
2023-03-05T08:23:24.561Z,35.28
2023-03-05T08:25:51.047Z,35.36
2023-03-05T08:28:19.646Z,35.60
2023-03-05T08:30:47.658Z,35.54
2023-03-05T08:33:15.301Z,35.56
2023-03-05T08:35:41.801Z,35.87
2023-03-05T08:38:08.262Z,35.54
2023-03-05T08:40:34.753Z,35.34
2023-03-05T08:43:01.230Z,35.17
2023-03-05T08:45:28.547Z,35.08
2023-03-05T08:47:57.209Z,35.12
2023-03-05T08:50:24.443Z,35.05
2023-03-05T08:52:51.044Z,34.87
2023-03-05T08:55:17.786Z,35.03
2023-03-05T08:57:44.210Z,35.03
2023-03-05T09:00:12.536Z,34.95
2023-03-05T09:02:39.990Z,34.79
2023-03-05T09:05:07.040Z,35.06
2023-03-05T09:07:33.534Z,35.18
2023-03-05T09:10:00.003Z,35.03
2023-03-05T09:12:26.565Z,35.04
2023-03-05T09:14:55.012Z,34.92
2023-03-05T09:17:21.751Z,35.24
2023-03-05T09:19:48.258Z,35.15
2023-03-05T09:22:15.206Z,35.30
2023-03-05T09:24:43.358Z,34.85
2023-03-05T09:27:09.906Z,34.99
2023-03-05T09:29:36.343Z,35.45
2023-03-05T09:32:03.104Z,35.59
2023-03-05T09:34:29.750Z,34.96
2023-03-05T09:36:56.371Z,34.83
2023-03-05T09:39:22.796Z,35.23
2023-03-05T09:42:10.158Z,34.90
2023-03-05T09:44:57.006Z,35.24
2023-03-05T09:48:05.044Z,35.23
2023-03-05T09:50:48.280Z,35.07
2023-03-05T09:53:14.689Z,35.39
2023-03-05T09:56:04.659Z,35.12
2023-03-05T09:58:56.414Z,35.23
2023-03-05T10:01:32.020Z,35.28
2023-03-05T10:04:19.074Z,34.75
2023-03-05T10:07:16.599Z,35.31
2023-03-05T10:09:49.533Z,34.69
2023-03-05T10:12:42.613Z,35.00
2023-03-05T10:15:32.122Z,34.93
2023-03-05T10:18:16.751Z,35.22
2023-03-05T10:20:50.194Z,34.71
2023-03-05T10:23:31.559Z,35.25
2023-03-05T10:26:10.792Z,34.88
2023-03-05T10:28:52.391Z,35.20
2023-03-05T10:31:28.362Z,34.94
2023-03-05T10:34:12.313Z,34.94
2023-03-05T10:36:59.866Z,35.27
2023-03-05T10:39:49.927Z,35.28
2023-03-05T10:42:33.387Z,35.12
2023-03-05T10:45:06.254Z,34.84
2023-03-05T10:47:45.410Z,34.88
2023-03-05T10:50:38.094Z,34.79
2023-03-05T10:53:19.568Z,34.87
2023-03-05T10:55:46.049Z,35.21
2023-03-05T10:58:15.008Z,34.79
2023-03-05T11:01:18.902Z,34.99
2023-03-05T11:03:47.025Z,35.02
2023-03-05T11:06:14.388Z,34.78
2023-03-05T11:08:41.261Z,34.95
2023-03-05T11:11:18.294Z,34.93
2023-03-05T11:13:55.739Z,34.68
2023-03-05T11:16:24.265Z,34.71
2023-03-05T11:18:53.680Z,35.16
2023-03-05T11:21:27.453Z,34.82
2023-03-05T11:24:26.195Z,35.16
2023-03-05T11:26:55.241Z,35.09
2023-03-05T11:29:27.410Z,35.42
2023-03-05T11:31:54.652Z,35.48
2023-03-05T11:34:26.103Z,35.02
2023-03-05T11:36:58.556Z,35.30
2023-03-05T11:39:26.097Z,35.43
2023-03-05T11:41:57.871Z,35.59
2023-03-05T11:44:27.508Z,35.91
2023-03-05T11:46:59.566Z,35.52
2023-03-05T11:49:28.923Z,35.59
2023-03-05T11:52:00.209Z,35.68
2023-03-05T11:54:33.497Z,36.52
2023-03-05T11:57:02.397Z,36.58
2023-03-05T11:59:35.243Z,37.07
2023-03-05T12:02:01.789Z,37.51
2023-03-05T12:04:32.154Z,38.08
2023-03-05T12:07:01.659Z,37.90
2023-03-05T12:09:43.433Z,37.91
2023-03-05T12:12:24.660Z,38.14
2023-03-05T12:15:20.907Z,38.02
2023-03-05T12:17:58.714Z,37.85
2023-03-05T12:20:49.004Z,38.18
2023-03-05T12:23:18.968Z,37.99
2023-03-05T12:25:51.422Z,37.93
2023-03-05T12:28:45.884Z,38.15
2023-03-05T12:31:27.614Z,38.10
2023-03-05T12:33:54.169Z,38.35
2023-03-05T12:36:20.594Z,38.61
2023-03-05T12:38:57.516Z,38.57
2023-03-05T12:41:25.769Z,37.88
2023-03-05T12:44:20.346Z,38.09
2023-03-05T12:47:17.767Z,39.45
2023-03-05T12:49:46.188Z,39.26
2023-03-05T12:52:23.572Z,39.08
2023-03-05T12:55:14.884Z,39.28
2023-03-05T12:57:44.764Z,39.09
2023-03-05T13:00:22.409Z,39.21
2023-03-05T13:02:56.134Z,39.09
2023-03-05T13:05:36.937Z,38.51
2023-03-05T13:08:16.060Z,38.75
2023-03-05T13:10:43.610Z,38.31
2023-03-05T13:13:15.895Z,38.32
2023-03-05T13:15:47.209Z,38.69
2023-03-05T13:18:25.966Z,38.27
2023-03-05T13:21:06.905Z,38.44
2023-03-05T13:23:35.126Z,37.95
2023-03-05T13:26:19.141Z,38.14
2023-03-05T13:29:17.408Z,37.78
2023-03-05T13:31:50.363Z,37.81
2023-03-05T13:34:46.674Z,37.99
2023-03-05T13:37:20.709Z,38.11
2023-03-05T13:39:54.819Z,38.01
2023-03-05T13:42:34.543Z,38.18
2023-03-05T13:45:07.851Z,38.10
2023-03-05T13:47:35.764Z,37.77
2023-03-05T13:50:06.458Z,38.13
2023-03-05T13:52:36.010Z,38.16
2023-03-05T13:55:05.345Z,38.14
2023-03-05T13:57:36.862Z,38.08
2023-03-05T14:00:06.559Z,38.14
2023-03-05T14:02:33.622Z,37.81
2023-03-05T14:05:00.575Z,38.21
2023-03-05T14:07:41.475Z,38.12
2023-03-05T14:10:36.059Z,38.05
2023-03-05T14:13:13.235Z,38.17
2023-03-05T14:15:40.497Z,37.92
2023-03-05T14:18:13.021Z,37.91
2023-03-05T14:20:41.245Z,37.54
2023-03-05T14:23:34.646Z,37.82
2023-03-05T14:26:19.915Z,37.33
2023-03-05T14:28:55.688Z,37.63
2023-03-05T14:31:24.178Z,37.71
2023-03-05T14:33:52.010Z,37.66
2023-03-05T14:36:24.812Z,37.62
2023-03-05T14:38:53.581Z,37.73
2023-03-05T14:41:39.675Z,37.97
2023-03-05T14:44:14.906Z,38.04
2023-03-05T14:46:42.824Z,37.75
2023-03-05T14:49:09.586Z,37.89
2023-03-05T14:51:41.164Z,38.17
2023-03-05T14:54:17.339Z,37.96
2023-03-05T14:56:43.877Z,38.15
2023-03-05T14:59:10.369Z,38.37
2023-03-05T15:01:36.860Z,37.93
2023-03-05T15:04:03.574Z,38.14
2023-03-05T15:06:33.254Z,38.22
2023-03-05T15:09:01.461Z,37.95
2023-03-05T15:11:27.972Z,38.22
2023-03-05T15:13:54.427Z,37.94
2023-03-05T15:16:21.792Z,38.11
2023-03-05T15:18:48.496Z,37.91
2023-03-05T15:21:15.813Z,38.20
2023-03-05T15:23:44.135Z,38.12
2023-03-05T15:26:14.451Z,37.88
2023-03-05T15:28:41.550Z,37.94
2023-03-05T15:31:08.356Z,38.04
2023-03-05T15:33:34.974Z,38.36
2023-03-05T15:36:01.466Z,38.44
2023-03-05T15:38:27.971Z,38.58
2023-03-05T15:40:54.522Z,38.36
2023-03-05T15:43:21.086Z,38.25
2023-03-05T15:45:48.144Z,38.43
2023-03-05T15:48:14.702Z,38.77
2023-03-05T15:50:43.426Z,38.50
2023-03-05T15:53:12.720Z,38.24
2023-03-05T15:55:40.547Z,38.32
2023-03-05T15:58:07.465Z,38.10
2023-03-05T16:00:37.016Z,38.48
2023-03-05T16:03:04.357Z,38.65
2023-03-05T16:05:31.226Z,38.86
2023-03-05T16:07:58.965Z,38.90
2023-03-05T16:10:28.076Z,38.93
2023-03-05T16:13:01.060Z,38.82
2023-03-05T16:15:28.072Z,39.12
2023-03-05T16:17:56.152Z,39.26
2023-03-05T16:20:22.960Z,39.13
2023-03-05T16:22:49.903Z,39.70
2023-03-05T16:25:16.776Z,39.31
2023-03-05T16:27:43.274Z,39.22
2023-03-05T16:30:10.934Z,39.23
2023-03-05T16:32:38.582Z,39.08
2023-03-05T16:35:05.706Z,39.25
2023-03-05T16:37:32.305Z,39.60
2023-03-05T16:39:59.432Z,39.78
2023-03-05T16:42:26.023Z,39.75
2023-03-05T16:44:52.530Z,39.86
2023-03-05T16:47:19.056Z,40.24
2023-03-05T16:49:45.633Z,40.07
2023-03-05T16:52:18.758Z,40.33
2023-03-05T16:54:46.958Z,40.54
2023-03-05T16:57:13.766Z,40.39
2023-03-05T16:59:40.354Z,40.60
2023-03-05T17:02:06.911Z,40.46
2023-03-05T17:04:33.454Z,40.46
2023-03-05T17:06:59.864Z,40.62
2023-03-05T17:09:26.344Z,40.95
2023-03-05T17:11:54.433Z,40.90
2023-03-05T17:14:21.433Z,40.97
2023-03-05T17:16:48.083Z,40.90
2023-03-05T17:19:14.855Z,40.80
2023-03-05T17:21:42.550Z,40.82
2023-03-05T17:24:10.325Z,41.17
2023-03-05T17:26:37.153Z,41.11
2023-03-05T17:29:05.318Z,41.04
2023-03-05T17:31:32.215Z,40.68
2023-03-05T17:33:58.758Z,40.56
2023-03-05T17:36:25.837Z,41.15
2023-03-05T17:38:53.231Z,40.91
2023-03-05T17:41:21.029Z,40.82
2023-03-05T17:43:47.565Z,41.04
2023-03-05T17:46:14.921Z,40.83
2023-03-05T17:48:41.660Z,40.97
2023-03-05T17:51:10.435Z,40.63
2023-03-05T17:53:39.343Z,41.12
2023-03-05T17:56:10.659Z,40.98
2023-03-05T17:58:37.915Z,41.28
2023-03-05T18:01:05.592Z,40.84
2023-03-05T18:03:32.241Z,40.94
2023-03-05T18:05:58.716Z,41.06
2023-03-05T18:08:25.339Z,41.00
2023-03-05T18:10:51.902Z,41.19
2023-03-05T18:13:18.343Z,41.23
2023-03-05T18:15:47.639Z,40.83
2023-03-05T18:18:15.967Z,41.10
2023-03-05T18:20:42.741Z,40.80
2023-03-05T18:23:09.923Z,40.77
2023-03-05T18:25:36.530Z,41.11
2023-03-05T18:28:11.516Z,41.15
2023-03-05T18:30:40.481Z,40.62
2023-03-05T18:33:08.082Z,41.04
2023-03-05T18:35:34.855Z,40.99
2023-03-05T18:38:01.688Z,40.62
2023-03-05T18:40:32.454Z,40.89
2023-03-05T18:43:00.866Z,40.85
2023-03-05T18:45:28.264Z,40.76
2023-03-05T18:47:56.625Z,40.92
2023-03-05T18:50:25.661Z,40.65
2023-03-05T18:52:52.273Z,40.74
2023-03-05T18:55:21.972Z,40.96
2023-03-05T18:57:49.256Z,40.80
2023-03-05T19:00:19.209Z,41.28
2023-03-05T19:02:45.774Z,40.82
2023-03-05T19:05:14.724Z,41.21
2023-03-05T19:07:41.569Z,41.04
2023-03-05T19:10:09.981Z,40.97
2023-03-05T19:12:45.392Z,41.09
2023-03-05T19:15:13.355Z,40.82
2023-03-05T19:17:40.685Z,41.32
2023-03-05T19:20:10.244Z,41.28
2023-03-05T19:22:36.736Z,41.07
2023-03-05T19:25:03.531Z,40.95
2023-03-05T19:27:30.064Z,40.78
2023-03-05T19:29:56.797Z,40.79
2023-03-05T19:32:23.958Z,40.85
2023-03-05T19:34:50.735Z,41.14
2023-03-05T19:37:18.195Z,41.20
2023-03-05T19:39:44.715Z,41.03
2023-03-05T19:42:11.538Z,40.76
2023-03-05T19:44:38.740Z,41.14
2023-03-05T19:47:06.131Z,41.11
2023-03-05T19:49:33.030Z,41.31
2023-03-05T19:51:59.518Z,40.85
2023-03-05T19:54:26.473Z,40.95
2023-03-05T19:56:54.926Z,40.92
2023-03-05T19:59:22.365Z,40.57
2023-03-05T20:01:49.700Z,40.74
2023-03-05T20:04:22.383Z,40.75
2023-03-05T20:06:48.984Z,40.85
2023-03-05T20:09:16.242Z,41.25
2023-03-05T20:11:42.914Z,41.15
2023-03-05T20:14:10.019Z,40.54
2023-03-05T20:16:40.095Z,40.64
2023-03-05T20:19:10.143Z,40.94
2023-03-05T20:21:40.540Z,40.90
2023-03-05T20:24:10.352Z,40.65
2023-03-05T20:26:38.127Z,40.43
2023-03-05T20:29:04.929Z,41.02
2023-03-05T20:31:36.864Z,40.54
2023-03-05T20:34:06.081Z,40.52
2023-03-05T20:36:34.576Z,40.88
2023-03-05T20:39:03.152Z,40.64
2023-03-05T20:41:30.346Z,40.51
2023-03-05T20:43:56.903Z,40.72
2023-03-05T20:46:28.958Z,40.47
2023-03-05T20:48:59.021Z,40.56
2023-03-05T20:51:36.790Z,40.37
2023-03-05T20:54:10.004Z,40.70
2023-03-05T20:56:36.989Z,40.71
2023-03-05T20:59:06.157Z,40.70
2023-03-05T21:01:34.496Z,40.21
2023-03-05T21:04:01.898Z,40.36
2023-03-05T21:06:30.209Z,40.45
2023-03-05T21:08:57.203Z,40.54
2023-03-05T21:11:23.978Z,40.46
2023-03-05T21:13:50.847Z,40.81
2023-03-05T21:16:23.121Z,40.46
2023-03-05T21:18:51.049Z,40.81
2023-03-05T21:21:17.871Z,40.96
2023-03-05T21:23:44.368Z,40.73
2023-03-05T21:26:11.711Z,40.66
2023-03-05T21:28:40.268Z,40.51
2023-03-05T21:31:10.632Z,40.74
2023-03-05T21:33:37.493Z,40.47
2023-03-05T21:36:04.529Z,40.53
2023-03-05T21:38:33.858Z,40.68
2023-03-05T21:41:01.347Z,40.42
2023-03-05T21:43:28.502Z,40.26
2023-03-05T21:45:57.125Z,40.15
2023-03-05T21:48:24.885Z,39.98
2023-03-05T21:50:52.641Z,40.39
2023-03-05T21:53:19.707Z,40.13
2023-03-05T21:56:02.602Z,40.30
2023-03-05T21:58:34.458Z,40.34
2023-03-05T22:01:01.053Z,40.36
2023-03-05T22:03:28.400Z,40.43
2023-03-05T22:05:55.736Z,40.42
2023-03-05T22:08:22.995Z,40.52
2023-03-05T22:10:49.866Z,40.46
2023-03-05T22:13:17.738Z,40.28
2023-03-05T22:15:50.803Z,40.58
2023-03-05T22:18:21.985Z,40.22
2023-03-05T22:20:48.733Z,40.29
2023-03-05T22:23:16.543Z,40.33
2023-03-05T22:25:43.943Z,40.24
2023-03-05T22:28:13.591Z,40.20
2023-03-05T22:30:44.974Z,40.11
2023-03-05T22:33:12.218Z,40.03
2023-03-05T22:35:40.798Z,40.22
2023-03-05T22:38:11.489Z,39.76
2023-03-05T22:40:42.224Z,40.20
2023-03-05T22:43:08.923Z,39.97
2023-03-05T22:45:35.853Z,39.71
2023-03-05T22:48:02.682Z,39.89
2023-03-05T22:50:29.251Z,40.30
2023-03-05T22:52:55.875Z,39.94
2023-03-05T22:55:22.479Z,40.20
2023-03-05T22:57:49.021Z,39.81
2023-03-05T23:00:23.440Z,39.79
2023-03-05T23:02:51.268Z,40.05
2023-03-05T23:05:18.075Z,40.02
2023-03-05T23:07:45.707Z,39.87
2023-03-05T23:10:21.733Z,39.56
2023-03-05T23:12:51.204Z,39.66
2023-03-05T23:15:26.986Z,39.33
2023-03-05T23:17:54.041Z,39.70
2023-03-05T23:20:23.792Z,39.85
2023-03-05T23:22:52.962Z,39.50
2023-03-05T23:25:20.587Z,39.77
2023-03-05T23:27:47.625Z,39.53
2023-03-05T23:30:21.624Z,39.49
2023-03-05T23:32:57.395Z,39.45
2023-03-05T23:35:30.855Z,39.01
2023-03-05T23:37:59.631Z,39.49
2023-03-05T23:40:34.925Z,39.39
2023-03-05T23:43:01.551Z,38.98
2023-03-05T23:45:28.708Z,38.98
2023-03-05T23:47:55.685Z,39.15
2023-03-05T23:50:25.592Z,38.99
2023-03-05T23:52:54.342Z,38.78
2023-03-05T23:55:26.413Z,38.69
2023-03-05T23:57:53.008Z,38.68
